Time;durP1;ratioP1;P1;durP2;ratioP2;P2;SDS_P1;SDS_P2;PMS_P1;PMS_P2;Temp;Humidity;BMP_temperature;BMP_pressure;BME280_temperature;BME280_humidity;BME280_pressure;Samples;Min_cycle;Max_cycle;Signal;HPM_P1;HPM_P2
2022/04/16 00:02:32;;;;;;;4.25;2.90;;;;;;;;;;8196818;28;20944;-70
2022/04/16 00:06:32;;;;;;;3.08;2.78;;;;;;;;;;8197072;28;20452;-70
2022/04/16 00:10:33;;;;;;;3.70;3.10;;;;;;;;;;8199753;28;20539;-70
2022/04/16 00:14:36;;;;;;;2.97;2.72;;;;;;;;;;8198631;28;20093;-70
2022/04/16 00:18:36;;;;;;;3.45;3.03;;;;;;;;;;8199554;28;20097;-71
2022/04/16 00:22:36;;;;;;;5.22;3.30;;;;;;;;;;8200234;28;20117;-70
2022/04/16 00:26:41;;;;;;;3.70;3.25;;;;;;;;;;8199149;28;20031;-71
2022/04/16 00:30:41;;;;;;;3.20;2.95;;;;;;;;;;8194802;28;20491;-71
2022/04/16 00:34:41;;;;;;;3.53;3.10;;;;;;;;;;8198922;28;20027;-70
2022/04/16 00:38:42;;;;;;;3.97;3.25;;;;;;;;;;8196771;28;20077;-70
2022/04/16 00:42:44;;;;;;;4.25;3.40;;;;;;;;;;8198072;28;20037;-70
2022/04/16 00:46:44;;;;;;;4.35;3.42;;;;;;;;;;8200250;28;20039;-70
2022/04/16 00:50:44;;;;;;;6.45;3.80;;;;;;;;;;8198403;28;20507;-71
2022/04/16 00:54:45;;;;;;;5.30;3.35;;;;;;;;;;8197274;28;20089;-70
2022/04/16 00:58:45;;;;;;;6.65;3.60;;;;;;;;;;8180694;28;20732;-70
2022/04/16 01:02:46;;;;;;;3.60;3.30;;;;;;;;;;8202787;28;20039;-70
2022/04/16 01:06:48;;;;;;;6.68;3.63;;;;;;;;;;8193608;28;20088;-70
2022/04/16 01:10:48;;;;;;;4.70;3.60;;;;;;;;;;8203622;28;20019;-70
2022/04/16 01:14:50;;;;;;;4.22;3.10;;;;;;;;;;8204063;28;20084;-71
2022/04/16 01:18:50;;;;;;;4.53;3.67;;;;;;;;;;8204237;28;20083;-70
2022/04/16 01:22:51;;;;;;;4.57;3.70;;;;;;;;;;8202505;28;20154;-70
2022/04/16 01:26:52;;;;;;;4.22;3.60;;;;;;;;;;8203419;28;20637;-70
2022/04/16 01:30:52;;;;;;;4.50;3.73;;;;;;;;;;8203569;28;20046;-71
2022/04/16 01:34:52;;;;;;;4.05;3.65;;;;;;;;;;8203838;28;20321;-70
2022/04/16 01:38:55;;;;;;;4.55;3.70;;;;;;;;;;8204658;28;20146;-70
2022/04/16 01:42:58;;;;;;;7.03;3.92;;;;;;;;;;8203693;28;20026;-70
2022/04/16 01:46:58;;;;;;;3.97;3.58;;;;;;;;;;8203813;28;20031;-70
2022/04/16 01:50:59;;;;;;;4.43;3.67;;;;;;;;;;8203916;28;20149;-70
2022/04/16 01:54:59;;;;;;;5.77;4.40;;;;;;;;;;8204761;28;20325;-70
2022/04/16 01:58:59;;;;;;;5.25;4.20;;;;;;;;;;8204316;28;20285;-70
2022/04/16 02:02:59;;;;;;;4.70;4.25;;;;;;;;;;8201385;28;20197;-71
2022/04/16 02:07:00;;;;;;;5.80;4.50;;;;;;;;;;8203748;28;20050;-70
2022/04/16 02:11:00;;;;;;;5.32;4.35;;;;;;;;;;8184161;28;20025;-70
2022/04/16 02:15:00;;;;;;;4.80;4.10;;;;;;;;;;8200664;28;20337;-70
2022/04/16 02:19:01;;;;;;;6.40;4.30;;;;;;;;;;8202045;28;20863;-70
2022/04/16 02:23:01;;;;;;;4.80;4.22;;;;;;;;;;8203505;28;20988;-71
2022/04/16 02:27:02;;;;;;;4.70;4.28;;;;;;;;;;8199229;28;20150;-70
2022/04/16 02:31:02;;;;;;;4.80;4.18;;;;;;;;;;8202363;28;20026;-71
2022/04/16 02:35:03;;;;;;;4.90;4.30;;;;;;;;;;8203599;28;20129;-70
2022/04/16 02:39:03;;;;;;;5.90;4.35;;;;;;;;;;8202635;28;20022;-70
2022/04/16 02:43:04;;;;;;;4.80;4.30;;;;;;;;;;8203191;28;20019;-70
2022/04/16 02:47:08;;;;;;;4.82;4.18;;;;;;;;;;8202592;28;20042;-70
2022/04/16 02:51:08;;;;;;;5.45;4.50;;;;;;;;;;8201945;28;20076;-70
2022/04/16 02:55:08;;;;;;;6.70;4.60;;;;;;;;;;8204636;28;20038;-70
2022/04/16 02:59:08;;;;;;;5.72;4.97;;;;;;;;;;8201437;28;20037;-70
2022/04/16 03:03:09;;;;;;;5.30;4.80;;;;;;;;;;8201899;28;20034;-70
2022/04/16 03:07:09;;;;;;;6.43;5.22;;;;;;;;;;8185156;28;20077;-70
2022/04/16 03:11:10;;;;;;;5.70;5.10;;;;;;;;;;8201132;28;20112;-70
2022/04/16 03:19:29;;;;;;;6.68;4.80;;;;;;;;;;8200127;28;20038;-70
2022/04/16 03:23:29;;;;;;;7.20;4.85;;;;;;;;;;8201614;28;20027;-70
2022/04/16 03:27:29;;;;;;;7.13;5.40;;;;;;;;;;8202051;28;20081;-71
2022/04/16 03:31:29;;;;;;;6.75;5.70;;;;;;;;;;8202371;28;20267;-70
2022/04/16 03:35:30;;;;;;;6.32;5.07;;;;;;;;;;8200303;28;20047;-71
2022/04/16 03:39:30;;;;;;;5.95;4.72;;;;;;;;;;8202096;28;20109;-71
2022/04/16 03:43:30;;;;;;;5.53;4.90;;;;;;;;;;8199884;28;20531;-70
2022/04/16 03:47:30;;;;;;;5.68;4.93;;;;;;;;;;8200633;28;20034;-70
2022/04/16 03:51:30;;;;;;;6.28;5.07;;;;;;;;;;8199164;28;20039;-71
2022/04/16 04:00:01;;;;;;;7.78;5.07;;;;;;;;;;8199058;28;20105;-70
2022/04/16 04:04:01;;;;;;;7.60;5.45;;;;;;;;;;8199590;28;20077;-71
2022/04/16 04:08:01;;;;;;;8.80;6.50;;;;;;;;;;8200064;28;20023;-71
2022/04/16 04:12:01;;;;;;;8.47;5.60;;;;;;;;;;8199657;28;20031;-70
2022/04/16 04:16:02;;;;;;;7.78;6.00;;;;;;;;;;8200488;28;20360;-70
2022/04/16 04:20:02;;;;;;;7.90;5.75;;;;;;;;;;8198537;28;20029;-71
2022/04/16 04:24:04;;;;;;;8.30;6.25;;;;;;;;;;8183856;28;20035;-71
2022/04/16 04:28:04;;;;;;;6.55;5.68;;;;;;;;;;8201358;28;20046;-70
2022/04/16 04:32:05;;;;;;;8.60;6.00;;;;;;;;;;8196000;28;20062;-71
2022/04/16 04:36:05;;;;;;;8.38;6.00;;;;;;;;;;8202260;28;20523;-71
2022/04/16 04:40:05;;;;;;;7.20;5.55;;;;;;;;;;8194846;28;20107;-70
2022/04/16 04:44:06;;;;;;;7.68;5.60;;;;;;;;;;8204540;28;20046;-71
2022/04/16 04:48:06;;;;;;;6.55;5.53;;;;;;;;;;8204658;28;20528;-70
2022/04/16 04:52:06;;;;;;;7.13;5.75;;;;;;;;;;8202462;28;20060;-71
2022/04/16 04:56:06;;;;;;;7.68;5.78;;;;;;;;;;8208318;28;20034;-70
2022/04/16 05:00:07;;;;;;;6.40;5.63;;;;;;;;;;8204987;28;20041;-70
2022/04/16 05:04:08;;;;;;;7.35;5.63;;;;;;;;;;8205422;28;20122;-70
2022/04/16 05:08:08;;;;;;;8.55;6.30;;;;;;;;;;8179833;28;20585;-69
2022/04/16 05:12:08;;;;;;;8.35;5.90;;;;;;;;;;8196389;28;20480;-69
2022/04/16 05:16:08;;;;;;;7.65;6.43;;;;;;;;;;8197385;28;20034;-69
2022/04/16 05:20:09;;;;;;;9.45;5.88;;;;;;;;;;8198046;28;20029;-69
2022/04/16 05:24:10;;;;;;;9.77;6.47;;;;;;;;;;8197928;28;20030;-68
2022/04/16 05:28:10;;;;;;;8.93;6.22;;;;;;;;;;8196808;28;20034;-69
2022/04/16 05:32:10;;;;;;;8.30;6.22;;;;;;;;;;8196851;28;20893;-69
2022/04/16 05:36:11;;;;;;;7.82;6.25;;;;;;;;;;8195959;28;20054;-68
2022/04/16 05:40:11;;;;;;;8.75;6.25;;;;;;;;;;8196611;28;20626;-69
2022/04/16 05:44:11;;;;;;;8.30;6.68;;;;;;;;;;8197572;28;20050;-69
2022/04/16 05:48:12;;;;;;;8.88;6.57;;;;;;;;;;8193473;28;20039;-68
2022/04/16 05:52:12;;;;;;;7.75;6.43;;;;;;;;;;8194518;28;20034;-69
2022/04/16 05:56:12;;;;;;;8.77;6.17;;;;;;;;;;8194635;28;20027;-68
2022/04/16 06:00:13;;;;;;;8.82;6.32;;;;;;;;;;8194512;28;20633;-68
2022/04/16 06:04:13;;;;;;;9.35;6.45;;;;;;;;;;8193601;28;20030;-68
2022/04/16 06:08:14;;;;;;;8.43;6.27;;;;;;;;;;8195110;28;20039;-68
2022/04/16 06:12:14;;;;;;;9.52;6.82;;;;;;;;;;8193142;28;20501;-68
2022/04/16 06:16:14;;;;;;;11.63;7.47;;;;;;;;;;8191170;28;20614;-69
2022/04/16 06:20:14;;;;;;;10.38;7.60;;;;;;;;;;8194147;28;20054;-68
2022/04/16 06:24:14;;;;;;;8.70;7.43;;;;;;;;;;8196627;28;20023;-68
2022/04/16 06:28:15;;;;;;;8.82;6.80;;;;;;;;;;8194138;28;20878;-69
2022/04/16 06:32:15;;;;;;;9.60;7.57;;;;;;;;;;8190848;28;20030;-69
2022/04/16 06:36:15;;;;;;;11.90;8.13;;;;;;;;;;8194762;28;20105;-69
2022/04/16 06:40:15;;;;;;;9.50;7.45;;;;;;;;;;8175715;28;20744;-69
2022/04/16 06:44:16;;;;;;;11.20;7.77;;;;;;;;;;8193657;28;20557;-69
2022/04/16 06:48:16;;;;;;;9.73;7.72;;;;;;;;;;8192595;28;20085;-68
2022/04/16 06:52:17;;;;;;;10.13;7.40;;;;;;;;;;8194015;28;20033;-68
2022/04/16 06:56:17;;;;;;;11.98;7.68;;;;;;;;;;8193391;28;20061;-69
2022/04/16 07:00:17;;;;;;;10.90;7.15;;;;;;;;;;8192246;28;20035;-69
2022/04/16 07:04:17;;;;;;;8.07;6.30;;;;;;;;;;8191826;28;20476;-70
2022/04/16 07:08:18;;;;;;;9.27;5.72;;;;;;;;;;8193724;28;20891;-69
2022/04/16 07:12:18;;;;;;;6.90;5.75;;;;;;;;;;8191963;28;20074;-69
2022/04/16 07:16:18;;;;;;;9.85;5.13;;;;;;;;;;8192850;28;20459;-70
2022/04/16 07:20:18;;;;;;;7.13;5.40;;;;;;;;;;8192470;28;20059;-69
2022/04/16 07:24:18;;;;;;;6.03;4.95;;;;;;;;;;8194143;28;20085;-69
2022/04/16 07:28:21;;;;;;;6.57;4.95;;;;;;;;;;8192414;28;20662;-69
2022/04/16 07:32:22;;;;;;;5.18;4.50;;;;;;;;;;8187838;28;20111;-69
2022/04/16 07:36:22;;;;;;;5.40;4.40;;;;;;;;;;8191065;28;20067;-69
2022/04/16 07:40:25;;;;;;;6.10;4.45;;;;;;;;;;8190614;28;20031;-69
2022/04/16 07:44:25;;;;;;;5.70;4.63;;;;;;;;;;8175280;28;20029;-70
2022/04/16 07:48:26;;;;;;;5.70;4.60;;;;;;;;;;8189456;28;20125;-69
2022/04/16 07:52:28;;;;;;;4.97;4.47;;;;;;;;;;8190751;28;20031;-70
2022/04/16 07:56:28;;;;;;;4.43;4.03;;;;;;;;;;8190639;28;20906;-69
2022/04/16 08:00:28;;;;;;;5.90;4.50;;;;;;;;;;8189734;28;20042;-70
2022/04/16 08:04:29;;;;;;;4.55;4.10;;;;;;;;;;8191731;28;20034;-70
2022/04/16 08:08:29;;;;;;;6.03;4.00;;;;;;;;;;8193341;28;20029;-70
2022/04/16 08:12:29;;;;;;;4.33;3.63;;;;;;;;;;8195588;28;20836;-70
2022/04/16 08:16:29;;;;;;;3.85;3.33;;;;;;;;;;8198876;28;20325;-70
2022/04/16 08:20:30;;;;;;;3.90;3.45;;;;;;;;;;8196472;28;20035;-69
2022/04/16 08:28:30;;;;;;;4.00;3.03;;;;;;;;;;8196798;28;20051;-70
2022/04/16 08:32:41;;;;;;;3.20;2.70;;;;;;;;;;8192236;28;20045;-70
2022/04/16 08:36:41;;;;;;;2.40;2.20;;;;;;;;;;8198337;28;20432;-70
2022/04/16 08:40:41;;;;;;;3.97;2.57;;;;;;;;;;8197781;28;20041;-69
2022/04/16 08:44:42;;;;;;;4.57;2.30;;;;;;;;;;8194763;28;20574;-70
2022/04/16 08:48:43;;;;;;;2.20;2.00;;;;;;;;;;8195160;28;20035;-69
2022/04/16 08:52:43;;;;;;;4.55;2.70;;;;;;;;;;8195484;28;20775;-69
2022/04/16 08:56:43;;;;;;;2.25;2.05;;;;;;;;;;8176258;28;20031;-70
2022/04/16 09:00:44;;;;;;;2.53;2.30;;;;;;;;;;8193095;28;20121;-69
2022/04/16 09:04:44;;;;;;;2.53;2.33;;;;;;;;;;8194781;28;20042;-69
2022/04/16 09:08:44;;;;;;;2.80;2.50;;;;;;;;;;8194886;28;20281;-69
2022/04/16 09:12:48;;;;;;;2.50;2.30;;;;;;;;;;8192352;28;20027;-69
2022/04/16 09:16:48;;;;;;;;;;;;;;;;;;8193392;28;20038;-69
2022/04/16 09:20:48;;;;;;;2.78;2.10;;;;;;;;;;8191896;28;19917;-69
2022/04/16 09:24:48;;;;;;;2.47;1.50;;;;;;;;;;8193755;28;20823;-69
2022/04/16 09:28:49;;;;;;;1.73;1.63;;;;;;;;;;8193016;28;20991;-69
2022/04/16 09:32:49;;;;;;;2.75;1.88;;;;;;;;;;8192620;28;20092;-69
2022/04/16 09:36:49;;;;;;;1.63;1.52;;;;;;;;;;8191709;28;20030;-69
2022/04/16 09:40:50;;;;;;;1.70;1.60;;;;;;;;;;8193793;28;20170;-69
2022/04/16 09:44:50;;;;;;;1.67;1.55;;;;;;;;;;8192264;28;20452;-69
2022/04/16 09:48:51;;;;;;;1.52;1.42;;;;;;;;;;8189954;28;20070;-69
2022/04/16 09:53:01;;;;;;;1.80;1.70;;;;;;;;;;8192372;28;20093;-69
2022/04/16 09:57:02;;;;;;;1.80;1.70;;;;;;;;;;8191727;28;20458;-69
2022/04/16 10:01:03;;;;;;;1.70;1.60;;;;;;;;;;8190611;28;20034;-70
2022/04/16 10:05:03;;;;;;;1.98;1.77;;;;;;;;;;8190209;28;20096;-69
2022/04/16 10:09:13;;;;;;;2.30;2.00;;;;;;;;;;8193214;28;20018;-69
2022/04/16 10:13:15;;;;;;;2.00;1.80;;;;;;;;;;8191230;28;20026;-69
2022/04/16 10:17:30;;;;;;;2.25;2.03;;;;;;;;;;8190825;28;20899;-70
2022/04/16 10:21:33;;;;;;;2.53;2.33;;;;;;;;;;8191983;28;20463;-70
2022/04/16 10:25:44;;;;;;;3.03;2.58;;;;;;;;;;8191710;28;20026;-70
2022/04/16 10:29:46;;;;;;;3.15;2.70;;;;;;;;;;8192127;28;20030;-69
2022/04/16 10:33:58;;;;;;;2.72;2.53;;;;;;;;;;8187681;28;20110;-69
2022/04/16 10:37:58;;;;;;;2.95;2.65;;;;;;;;;;8189990;28;20030;-69
2022/04/16 10:42:00;;;;;;;2.80;2.60;;;;;;;;;;8189692;28;20023;-70
2022/04/16 10:46:04;;;;;;;2.85;2.58;;;;;;;;;;8189370;28;20042;-69
2022/04/16 10:50:22;;;;;;;3.00;2.35;;;;;;;;;;8189617;28;20491;-70
2022/04/16 10:54:28;;;;;;;2.40;2.20;;;;;;;;;;8191417;28;20750;-70
2022/04/16 10:58:28;;;;;;;2.95;2.55;;;;;;;;;;8191011;28;20108;-70
2022/04/16 11:02:30;;;;;;;2.33;2.13;;;;;;;;;;8193433;28;20034;-70
2022/04/16 11:06:34;;;;;;;4.00;2.50;;;;;;;;;;8194190;28;20018;-69
2022/04/16 11:10:34;;;;;;;1.98;1.88;;;;;;;;;;8174840;28;20023;-69
2022/04/16 11:14:35;;;;;;;2.50;2.30;;;;;;;;;;8189099;28;20353;-69
2022/04/16 11:18:45;;;;;;;2.50;2.30;;;;;;;;;;8190160;28;20066;-69
2022/04/16 11:22:46;;;;;;;2.22;2.03;;;;;;;;;;8188932;28;20816;-69
2022/04/16 11:35:25;;;;;;;2.15;1.90;;;;;;;;;;8191893;28;20070;-70
2022/04/16 11:39:26;;;;;;;2.17;2.00;;;;;;;;;;8191335;28;20980;-69
2022/04/16 11:43:29;;;;;;;2.20;1.92;;;;;;;;;;8191819;28;20779;-70
2022/04/16 11:47:33;;;;;;;2.95;2.10;;;;;;;;;;8192506;28;20045;-70
2022/04/16 11:51:38;;;;;;;2.10;1.90;;;;;;;;;;8190457;28;20500;-70
2022/04/16 11:55:44;;;;;;;2.78;2.35;;;;;;;;;;8193875;28;20037;-70
2022/04/16 11:59:54;;;;;;;2.63;2.10;;;;;;;;;;8171449;28;20633;-70
2022/04/16 12:03:57;;;;;;;1.90;1.80;;;;;;;;;;8189057;28;20153;-70
2022/04/16 12:07:57;;;;;;;2.27;1.90;;;;;;;;;;8189641;28;20023;-70
2022/04/16 12:11:59;;;;;;;4.32;1.70;;;;;;;;;;8186831;28;20023;-70
2022/04/16 12:16:02;;;;;;;1.65;1.55;;;;;;;;;;8189760;28;20035;-70
2022/04/16 12:20:08;;;;;;;1.70;1.60;;;;;;;;;;8189167;28;20190;-70
2022/04/16 12:24:09;;;;;;;1.50;1.40;;;;;;;;;;8191684;28;20030;-70
2022/04/16 12:28:11;;;;;;;1.88;1.77;;;;;;;;;;8191702;28;20078;-70
2022/04/16 12:32:11;;;;;;;2.00;1.80;;;;;;;;;;8190134;28;20078;-70
2022/04/16 12:36:11;;;;;;;4.60;1.92;;;;;;;;;;8192065;28;20034;-70
2022/04/16 12:40:12;;;;;;;1.85;1.70;;;;;;;;;;8190320;28;20038;-70
2022/04/16 12:44:12;;;;;;;1.83;1.73;;;;;;;;;;8192350;28;20023;-70
2022/04/16 12:48:12;;;;;;;2.42;1.85;;;;;;;;;;8187690;28;20085;-70
2022/04/16 12:52:12;;;;;;;3.13;2.22;;;;;;;;;;8190992;28;20809;-70
2022/04/16 12:56:12;;;;;;;2.60;1.77;;;;;;;;;;8190532;28;20061;-70
2022/04/16 13:00:14;;;;;;;1.60;1.50;;;;;;;;;;8195713;28;20033;-70
2022/04/16 13:04:14;;;;;;;1.40;1.30;;;;;;;;;;8198353;28;20031;-70
2022/04/16 13:08:16;;;;;;;1.70;1.52;;;;;;;;;;8197559;28;20815;-70
2022/04/16 13:12:19;;;;;;;2.00;1.65;;;;;;;;;;8197041;28;20023;-70
2022/04/16 13:16:20;;;;;;;2.97;1.40;;;;;;;;;;8194935;28;20038;-70
2022/04/16 13:20:20;;;;;;;3.63;1.45;;;;;;;;;;8195551;28;20842;-70
2022/04/16 13:24:20;;;;;;;1.52;1.42;;;;;;;;;;8196251;28;20436;-70
2022/04/16 13:28:22;;;;;;;2.10;1.60;;;;;;;;;;8194430;28;20101;-70
2022/04/16 13:32:22;;;;;;;2.17;1.40;;;;;;;;;;8186917;28;20124;-70
2022/04/16 13:36:22;;;;;;;2.55;1.30;;;;;;;;;;8192254;28;20034;-70
2022/04/16 13:44:42;;;;;;;4.60;1.30;;;;;;;;;;8190961;28;20041;-70
2022/04/16 13:48:42;;;;;;;1.90;1.20;;;;;;;;;;8191649;28;20046;-70
2022/04/16 13:52:43;;;;;;;1.50;1.40;;;;;;;;;;8190121;28;20042;-70
2022/04/16 13:56:43;;;;;;;1.80;1.70;;;;;;;;;;8192838;28;20034;-69
2022/04/16 14:00:43;;;;;;;1.77;1.63;;;;;;;;;;8190101;28;20046;-70
2022/04/16 14:09:02;;;;;;;2.38;1.95;;;;;;;;;;8192400;28;20091;-70
2022/04/16 14:13:03;;;;;;;2.78;1.33;;;;;;;;;;8191222;28;20027;-70
2022/04/16 14:17:03;;;;;;;7.63;1.40;;;;;;;;;;8191791;28;20095;-72
2022/04/16 14:21:13;;;;;;;1.92;1.30;;;;;;;;;;8193167;28;20168;-72
2022/04/16 14:25:16;;;;;;;3.00;1.48;;;;;;;;;;8194029;28;20058;-70
2022/04/16 14:29:17;;;;;;;3.63;1.43;;;;;;;;;;8193046;28;20482;-71
2022/04/16 14:33:17;;;;;;;1.20;1.10;;;;;;;;;;8190394;28;20062;-72
2022/04/16 14:37:17;;;;;;;0.90;0.90;;;;;;;;;;8192045;28;20094;-72
2022/04/16 14:41:18;;;;;;;3.10;1.20;;;;;;;;;;8191362;28;20614;-73
2022/04/16 14:45:18;;;;;;;1.40;1.00;;;;;;;;;;8189217;28;20023;-69
2022/04/16 14:49:18;;;;;;;0.80;0.80;;;;;;;;;;8191195;28;20027;-69
2022/04/16 14:53:19;;;;;;;1.25;0.90;;;;;;;;;;8189233;28;20036;-70
2022/04/16 14:57:19;;;;;;;1.10;0.88;;;;;;;;;;8171578;28;20100;-70
2022/04/16 15:01:19;;;;;;;5.32;0.80;;;;;;;;;;8188987;28;20085;-70
2022/04/16 15:05:20;;;;;;;2.70;0.73;;;;;;;;;;8190442;28;20817;-70
2022/04/16 15:09:20;;;;;;;2.90;0.93;;;;;;;;;;8191318;28;20022;-70
2022/04/16 15:13:20;;;;;;;2.85;1.00;;;;;;;;;;8189775;28;20038;-70
2022/04/16 15:17:24;;;;;;;2.72;0.90;;;;;;;;;;8172693;28;20046;-70
2022/04/16 15:21:24;;;;;;;4.55;0.90;;;;;;;;;;8188322;28;20027;-70
2022/04/16 15:25:24;;;;;;;1.20;0.82;;;;;;;;;;8189967;28;20065;-69
2022/04/16 15:29:25;;;;;;;1.77;0.90;;;;;;;;;;8175188;28;20511;-69
2022/04/16 15:33:25;;;;;;;2.73;0.80;;;;;;;;;;8186631;28;20054;-69
2022/04/16 15:37:26;;;;;;;1.35;0.90;;;;;;;;;;8189101;28;20760;-69
2022/04/16 15:41:28;;;;;;;1.50;0.80;;;;;;;;;;8188023;28;20064;-70
2022/04/16 15:45:29;;;;;;;1.10;0.90;;;;;;;;;;8187561;28;20109;-69
2022/04/16 15:49:30;;;;;;;1.10;0.93;;;;;;;;;;8189116;28;20089;-69
2022/04/16 15:53:32;;;;;;;2.75;0.80;;;;;;;;;;8187512;28;20027;-69
2022/04/16 15:57:32;;;;;;;1.17;0.88;;;;;;;;;;8169063;28;20027;-69
2022/04/16 16:01:32;;;;;;;1.50;0.97;;;;;;;;;;8186644;28;20046;-69
2022/04/16 16:05:33;;;;;;;0.80;0.80;;;;;;;;;;8188894;28;20190;-69
2022/04/16 16:09:33;;;;;;;1.95;0.93;;;;;;;;;;8189224;28;20069;-69
2022/04/16 16:13:33;;;;;;;0.90;0.80;;;;;;;;;;8186870;28;20488;-69
2022/04/16 16:17:34;;;;;;;1.00;0.90;;;;;;;;;;8186291;28;20035;-70
2022/04/16 16:21:34;;;;;;;0.85;0.82;;;;;;;;;;8189589;28;20266;-69
2022/04/16 16:25:34;;;;;;;2.20;0.68;;;;;;;;;;8189115;28;20030;-69
2022/04/16 16:29:35;;;;;;;1.92;0.80;;;;;;;;;;8187481;28;20037;-69
2022/04/16 16:33:35;;;;;;;0.70;0.70;;;;;;;;;;8192220;28;20042;-69
2022/04/16 16:37:35;;;;;;;1.42;0.80;;;;;;;;;;8193679;28;20278;-69
2022/04/16 16:41:35;;;;;;;1.10;0.70;;;;;;;;;;8195500;28;20189;-70
2022/04/16 16:45:35;;;;;;;0.80;0.80;;;;;;;;;;8193026;28;20042;-69
2022/04/16 16:49:36;;;;;;;0.85;0.70;;;;;;;;;;8193864;28;20022;-69
2022/04/16 16:53:36;;;;;;;0.80;0.80;;;;;;;;;;8195729;28;20609;-70
2022/04/16 16:57:37;;;;;;;0.93;0.80;;;;;;;;;;8196783;28;20484;-69
2022/04/16 17:01:39;;;;;;;1.95;1.00;;;;;;;;;;8195445;28;20146;-70
2022/04/16 17:05:40;;;;;;;1.88;0.75;;;;;;;;;;8194819;28;20677;-69
2022/04/16 17:09:40;;;;;;;0.60;0.60;;;;;;;;;;8195348;28;20154;-70
2022/04/16 17:13:40;;;;;;;1.98;0.80;;;;;;;;;;8196197;28;20026;-69
2022/04/16 17:22:00;;;;;;;0.75;0.75;;;;;;;;;;8195502;28;20033;-69
2022/04/16 17:26:00;;;;;;;0.80;0.57;;;;;;;;;;8194486;28;20031;-70
2022/04/16 17:30:01;;;;;;;1.25;0.65;;;;;;;;;;8195780;28;20022;-70
2022/04/16 17:34:02;;;;;;;1.00;0.70;;;;;;;;;;8192742;28;20068;-70
2022/04/16 17:38:02;;;;;;;2.28;0.75;;;;;;;;;;8195428;28;20110;-70
2022/04/16 17:42:15;;;;;;;1.05;0.70;;;;;;;;;;8194484;28;20022;-70
2022/04/16 17:46:15;;;;;;;2.03;0.80;;;;;;;;;;8196475;28;20055;-70
2022/04/16 17:50:15;;;;;;;1.50;0.95;;;;;;;;;;8194354;28;20769;-69
2022/04/16 17:54:15;;;;;;;1.38;0.80;;;;;;;;;;8195353;28;20537;-69
2022/04/16 17:58:16;;;;;;;0.70;0.70;;;;;;;;;;8194919;28;20903;-69
2022/04/16 18:02:16;;;;;;;3.73;1.00;;;;;;;;;;8193322;28;20031;-70
2022/04/16 18:06:17;;;;;;;0.70;0.70;;;;;;;;;;8194093;28;20286;-69
2022/04/16 18:10:17;;;;;;;3.97;0.70;;;;;;;;;;8195619;28;20472;-69
2022/04/16 18:14:17;;;;;;;0.73;0.70;;;;;;;;;;8194702;28;20114;-70
2022/04/16 18:18:19;;;;;;;0.60;0.60;;;;;;;;;;8193887;28;20140;-70
2022/04/16 18:22:19;;;;;;;0.70;0.70;;;;;;;;;;8194353;28;20095;-69
2022/04/16 18:26:19;;;;;;;0.70;0.70;;;;;;;;;;8193980;28;20027;-69
2022/04/16 18:30:22;;;;;;;2.15;0.80;;;;;;;;;;8193608;28;20054;-69
2022/04/16 18:34:22;;;;;;;0.82;0.82;;;;;;;;;;8177923;28;20034;-69
2022/04/16 18:38:23;;;;;;;5.38;0.90;;;;;;;;;;8193179;28;20654;-69
2022/04/16 18:42:23;;;;;;;1.70;0.80;;;;;;;;;;8191838;28;20055;-69
2022/04/16 18:46:23;;;;;;;1.95;0.80;;;;;;;;;;8192036;28;20162;-69
2022/04/16 18:50:23;;;;;;;1.38;0.98;;;;;;;;;;8191887;28;20704;-69
2022/04/16 18:54:24;;;;;;;1.10;1.00;;;;;;;;;;8192212;28;20117;-69
2022/04/16 18:58:24;;;;;;;2.65;1.00;;;;;;;;;;8175538;28;20027;-69
2022/04/16 19:06:52;;;;;;;1.33;0.90;;;;;;;;;;8198061;28;20062;-71
2022/04/16 19:10:54;;;;;;;1.25;1.10;;;;;;;;;;8194488;28;20876;-71
2022/04/16 19:14:54;;;;;;;1.15;0.90;;;;;;;;;;8198735;28;20406;-71
2022/04/16 19:18:55;;;;;;;1.90;1.10;;;;;;;;;;8195991;28;20046;-71
2022/04/16 19:23:14;;;;;;;1.15;0.90;;;;;;;;;;8196762;28;20027;-70
2022/04/16 19:27:14;;;;;;;0.98;0.88;;;;;;;;;;8197616;28;20693;-71
2022/04/16 19:31:14;;;;;;;1.15;1.05;;;;;;;;;;8182514;28;20035;-71
2022/04/16 19:35:14;;;;;;;1.35;1.00;;;;;;;;;;8196835;28;20035;-71
2022/04/16 19:39:15;;;;;;;5.07;1.00;;;;;;;;;;8195471;28;20023;-71
2022/04/16 19:43:15;;;;;;;1.02;0.90;;;;;;;;;;8195846;28;20034;-70
2022/04/16 19:47:15;;;;;;;2.95;0.90;;;;;;;;;;8195978;28;20027;-71
2022/04/16 19:51:19;;;;;;;1.10;1.00;;;;;;;;;;8197795;28;20027;-70
2022/04/16 19:55:19;;;;;;;1.20;1.10;;;;;;;;;;8196928;28;20019;-70
2022/04/16 19:59:20;;;;;;;2.13;1.23;;;;;;;;;;8199536;28;20057;-70
2022/04/16 20:03:20;;;;;;;1.20;1.08;;;;;;;;;;8197702;28;20078;-70
2022/04/16 20:07:20;;;;;;;1.98;1.25;;;;;;;;;;8204648;28;20197;-70
2022/04/16 20:11:21;;;;;;;1.10;1.00;;;;;;;;;;8208334;28;20033;-70
2022/04/16 20:15:23;;;;;;;3.45;1.00;;;;;;;;;;8207381;28;20038;-71
2022/04/16 20:19:24;;;;;;;2.40;1.05;;;;;;;;;;8208137;28;20031;-70
2022/04/16 20:23:24;;;;;;;1.60;1.20;;;;;;;;;;8191146;28;20034;-70
2022/04/16 20:27:24;;;;;;;1.15;1.05;;;;;;;;;;8208074;28;20192;-70
2022/04/16 20:31:24;;;;;;;1.38;1.27;;;;;;;;;;8190266;28;20938;-70
2022/04/16 20:35:25;;;;;;;2.58;1.60;;;;;;;;;;8206097;28;20035;-70
2022/04/16 20:45:18;;;;;;;2.97;1.60;;;;;;;;;;8208029;28;20030;-70
2022/04/16 20:48:05;;;;;;;2.25;1.50;;;;;;;;;;8207467;28;20852;-70
2022/04/16 20:56:26;;;;;;;1.73;1.50;;;;;;;;;;8208501;28;20352;-70
2022/04/16 21:00:26;;;;;;;3.75;1.60;;;;;;;;;;8206319;28;20120;-70
2022/04/16 21:04:27;;;;;;;2.08;1.77;;;;;;;;;;8208553;28;20077;-70
2022/04/16 21:08:27;;;;;;;2.30;1.50;;;;;;;;;;8182420;28;20107;-70
2022/04/16 21:12:27;;;;;;;1.92;1.70;;;;;;;;;;8207388;28;20101;-70
2022/04/16 21:16:27;;;;;;;1.65;1.33;;;;;;;;;;8190727;28;20073;-70
2022/04/16 21:20:28;;;;;;;1.38;1.27;;;;;;;;;;8200757;28;20121;-70
2022/04/16 21:24:28;;;;;;;3.13;1.55;;;;;;;;;;8201541;28;20030;-70
2022/04/16 21:28:29;;;;;;;3.10;1.50;;;;;;;;;;8204524;28;20499;-70
2022/04/16 21:32:30;;;;;;;2.08;1.33;;;;;;;;;;8202845;28;20030;-70
2022/04/16 21:36:30;;;;;;;1.75;1.40;;;;;;;;;;8202463;28;20023;-70
2022/04/16 21:40:30;;;;;;;1.73;1.40;;;;;;;;;;8204436;28;20080;-70
2022/04/16 21:44:31;;;;;;;3.00;1.50;;;;;;;;;;8201594;28;20022;-70
2022/04/16 21:48:31;;;;;;;6.30;1.20;;;;;;;;;;8201299;28;20309;-70
2022/04/16 21:52:31;;;;;;;1.50;1.10;;;;;;;;;;8201388;28;20066;-70
2022/04/16 21:56:31;;;;;;;1.25;1.15;;;;;;;;;;8201082;28;20071;-70
2022/04/16 22:00:44;;;;;;;2.40;1.20;;;;;;;;;;8201509;28;20538;-71
2022/04/16 22:04:44;;;;;;;1.50;1.40;;;;;;;;;;8202864;28;20396;-70
2022/04/16 22:08:44;;;;;;;1.45;1.35;;;;;;;;;;8199597;28;20034;-70
2022/04/16 22:12:45;;;;;;;1.60;1.30;;;;;;;;;;8201221;28;20030;-71
2022/04/16 22:16:46;;;;;;;1.40;1.25;;;;;;;;;;8200018;28;20085;-70
2022/04/16 22:20:46;;;;;;;1.83;1.52;;;;;;;;;;8199719;28;20038;-70
2022/04/16 22:24:48;;;;;;;2.88;1.30;;;;;;;;;;8202209;28;20034;-70
2022/04/16 22:28:48;;;;;;;3.00;1.20;;;;;;;;;;8200488;28;20027;-70
2022/04/16 22:32:48;;;;;;;1.95;1.15;;;;;;;;;;8201018;28;20042;-70
2022/04/16 22:41:08;;;;;;;0.90;0.90;;;;;;;;;;8199846;28;20119;-70
2022/04/16 22:45:08;;;;;;;2.05;1.20;;;;;;;;;;8201480;28;20750;-70
2022/04/16 22:49:08;;;;;;;1.50;1.17;;;;;;;;;;8185464;28;20019;-70
2022/04/16 22:53:09;;;;;;;1.33;1.00;;;;;;;;;;8201973;28;21058;-70
2022/04/16 22:57:09;;;;;;;1.63;0.97;;;;;;;;;;8202607;28;20035;-70
2022/04/16 23:01:09;;;;;;;1.00;0.90;;;;;;;;;;8200727;28;20258;-70
2022/04/16 23:05:09;;;;;;;1.08;1.00;;;;;;;;;;8202292;28;20033;-70
2022/04/16 23:09:09;;;;;;;1.83;1.00;;;;;;;;;;8203981;28;20102;-70
2022/04/16 23:13:10;;;;;;;1.13;0.80;;;;;;;;;;8200596;28;20018;-70
2022/04/16 23:17:10;;;;;;;1.40;1.20;;;;;;;;;;8200234;28;20148;-70
2022/04/16 23:21:11;;;;;;;2.00;0.93;;;;;;;;;;8201766;28;20022;-70
2022/04/16 23:25:11;;;;;;;2.60;1.50;;;;;;;;;;8200091;28;20019;-70
2022/04/16 23:29:11;;;;;;;1.35;1.00;;;;;;;;;;8200164;28;20137;-70
2022/04/16 23:33:11;;;;;;;1.65;1.15;;;;;;;;;;8198384;28;20041;-70
2022/04/16 23:37:11;;;;;;;1.98;1.10;;;;;;;;;;8199940;28;20042;-70
2022/04/16 23:41:11;;;;;;;2.78;1.20;;;;;;;;;;8197782;28;20065;-70
2022/04/16 23:49:30;;;;;;;1.83;1.13;;;;;;;;;;8199724;28;20036;-70
2022/04/16 23:53:32;;;;;;;1.42;1.17;;;;;;;;;;8197571;28;20315;-70
2022/04/16 23:57:33;;;;;;;1.55;1.20;;;;;;;;;;8198094;28;20034;-70
